createdAt,value
2022-10-18T00:01:17.376Z,101896.22
2022-10-18T00:03:45.114Z,101902.84
2022-10-18T00:06:13.097Z,101887.31
2022-10-18T00:08:41.110Z,101897.50
2022-10-18T00:11:08.979Z,101895.56
2022-10-18T00:13:37.658Z,101890.34
2022-10-18T00:16:12.607Z,101890.34
2022-10-18T00:18:40.826Z,101884.22
2022-10-18T00:21:13.926Z,101898.44
2022-10-18T00:23:41.766Z,101890.56
2022-10-18T00:26:12.356Z,101895.66
2022-10-18T00:28:42.236Z,101906.56
2022-10-18T00:31:13.358Z,101908.06
2022-10-18T00:33:41.926Z,101915.69
2022-10-18T00:36:11.172Z,101902.47
2022-10-18T00:38:39.536Z,101907.81
2022-10-18T00:41:12.091Z,101914.69
2022-10-18T00:43:58.285Z,101913.91
2022-10-18T00:46:30.708Z,101917.97
2022-10-18T00:49:00.965Z,101912.88
2022-10-18T00:51:37.650Z,101918.88
2022-10-18T00:54:06.015Z,101923.19
2022-10-18T00:56:35.483Z,101920.66
2022-10-18T00:59:03.903Z,101923.06
2022-10-18T01:01:33.211Z,101915.91
2022-10-18T01:04:01.186Z,101920.25
2022-10-18T01:06:30.039Z,101923.81
2022-10-18T01:09:11.099Z,101917.72
2022-10-18T01:11:56.984Z,101926.06
2022-10-18T01:14:35.928Z,101921.63
2022-10-18T01:17:22.630Z,101920.72
2022-10-18T01:20:17.153Z,101920.72
2022-10-18T01:22:48.995Z,101930.00
2022-10-18T01:25:38.016Z,101933.31
2022-10-18T01:28:21.233Z,101921.00
2022-10-18T01:30:55.844Z,101920.38
2022-10-18T01:33:37.127Z,101911.13
2022-10-18T01:36:11.118Z,101903.19
2022-10-18T01:38:40.614Z,101894.66
2022-10-18T01:41:14.860Z,101896.47
2022-10-18T01:43:46.436Z,101896.19
2022-10-18T01:46:20.829Z,101890.81
2022-10-18T01:48:51.790Z,101894.28
2022-10-18T01:51:20.676Z,101891.44
2022-10-18T01:53:48.546Z,101887.13
2022-10-18T01:56:23.737Z,101878.31
2022-10-18T01:59:04.624Z,101880.22
2022-10-18T02:01:44.390Z,101877.84
2022-10-18T02:04:21.600Z,101880.78
2022-10-18T02:06:56.062Z,101892.88
2022-10-18T02:09:34.679Z,101887.19
2022-10-18T02:12:07.357Z,101880.78
2022-10-18T02:14:36.070Z,101873.38
2022-10-18T02:17:09.051Z,101873.97
2022-10-18T02:19:41.446Z,101872.06
2022-10-18T02:22:13.218Z,101881.34
2022-10-18T02:24:45.708Z,101886.28
2022-10-18T02:27:13.894Z,101859.59
2022-10-18T02:29:43.107Z,101885.53
2022-10-18T02:32:18.580Z,101878.66
2022-10-18T02:34:50.845Z,101872.38
2022-10-18T02:37:21.129Z,101873.25
2022-10-18T02:39:51.248Z,101843.78
2022-10-18T02:42:19.477Z,101867.31
2022-10-18T02:44:47.240Z,101863.72
2022-10-18T02:47:16.692Z,101874.03
2022-10-18T02:49:44.441Z,101868.81
2022-10-18T02:52:12.275Z,101866.09
2022-10-18T02:54:40.059Z,101865.22
2022-10-18T02:57:08.475Z,101871.97
2022-10-18T02:59:36.275Z,101865.22
2022-10-18T03:04:47.331Z,101854.91
2022-10-18T03:07:17.880Z,101855.69
2022-10-18T03:09:45.866Z,101860.50
2022-10-18T03:12:13.953Z,101858.69
2022-10-18T03:14:53.595Z,101865.56
2022-10-18T03:17:24.480Z,101865.16
2022-10-18T03:19:53.559Z,101868.47
2022-10-18T03:22:21.403Z,101863.22
2022-10-18T03:24:49.255Z,101863.06
2022-10-18T03:27:19.399Z,101861.44
2022-10-18T03:29:54.764Z,101863.97
2022-10-18T03:32:50.008Z,101854.56
2022-10-18T03:35:19.430Z,101851.88
2022-10-18T03:37:47.482Z,101854.28
2022-10-18T03:40:15.465Z,101849.94
2022-10-18T03:42:48.694Z,101853.38
2022-10-18T03:45:19.473Z,101847.41
2022-10-18T03:47:47.338Z,101845.63
2022-10-18T03:50:15.290Z,101843.44
2022-10-18T03:52:59.272Z,101842.53
2022-10-18T03:55:36.042Z,101844.03
2022-10-18T03:58:06.075Z,101835.53
2022-10-18T04:00:40.344Z,101825.50
2022-10-18T04:03:10.077Z,101839.72
2022-10-18T04:05:44.005Z,101835.38
2022-10-18T04:08:13.523Z,101833.47
2022-10-18T04:10:44.366Z,101824.25
2022-10-18T04:13:16.097Z,101830.63
2022-10-18T04:15:50.021Z,101841.81
2022-10-18T04:18:17.821Z,101839.16
2022-10-18T04:20:48.103Z,101844.22
2022-10-18T04:23:20.104Z,101850.22
2022-10-18T04:25:48.567Z,101846.34
2022-10-18T04:28:16.553Z,101848.41
2022-10-18T04:30:44.449Z,101860.38
2022-10-18T04:33:12.371Z,101849.19
2022-10-18T04:35:54.357Z,101846.00
2022-10-18T04:38:23.536Z,101849.31
2022-10-18T04:40:51.480Z,101844.84
2022-10-18T04:43:19.610Z,101842.94
2022-10-18T04:45:48.110Z,101817.19
2022-10-18T04:48:19.415Z,101847.56
2022-10-18T04:50:52.146Z,101841.59
2022-10-18T04:53:20.616Z,101847.44
2022-10-18T04:55:51.176Z,101845.81
2022-10-18T04:58:19.859Z,101847.44
2022-10-18T05:00:49.061Z,101856.69
2022-10-18T05:03:17.690Z,101851.47
2022-10-18T05:06:01.948Z,101854.75
2022-10-18T05:08:39.876Z,101855.53
2022-10-18T05:11:15.405Z,101858.81
2022-10-18T05:13:45.946Z,101853.44
2022-10-18T05:16:15.961Z,101826.38
2022-10-18T05:18:44.148Z,101859.31
2022-10-18T05:21:12.746Z,101861.06
2022-10-18T05:23:43.718Z,101864.50
2022-10-18T05:26:13.769Z,101865.88
2022-10-18T05:28:57.038Z,101870.19
2022-10-18T05:31:27.034Z,101877.22
2022-10-18T05:33:58.150Z,101876.31
2022-10-18T05:36:26.159Z,101876.31
2022-10-18T05:39:02.616Z,101868.69
2022-10-18T05:41:35.598Z,101864.38
2022-10-18T05:44:08.496Z,101840.25
2022-10-18T05:46:37.288Z,101862.56
2022-10-18T05:49:05.246Z,101866.34
2022-10-18T05:51:35.581Z,101863.03
2022-10-18T05:54:06.197Z,101867.06
2022-10-18T05:56:34.262Z,101879.63
2022-10-18T05:59:12.296Z,101877.22
2022-10-18T06:01:43.947Z,101881.44
2022-10-18T06:04:15.059Z,101876.06
2022-10-18T06:06:42.901Z,101882.63
2022-10-18T06:09:10.819Z,101886.03
2022-10-18T06:11:45.935Z,101888.88
2022-10-18T06:14:15.153Z,101887.38
2022-10-18T06:19:25.181Z,101898.56
2022-10-18T06:21:53.104Z,101900.78
2022-10-18T06:24:21.680Z,101906.63
2022-10-18T06:26:50.049Z,101908.13
2022-10-18T06:29:21.792Z,101908.88
2022-10-18T06:31:49.691Z,101903.53
2022-10-18T06:34:18.080Z,101910.69
2022-10-18T06:36:52.879Z,101916.34
2022-10-18T06:39:23.088Z,101917.38
2022-10-18T06:41:50.844Z,101914.84
2022-10-18T06:44:27.564Z,101918.44
2022-10-18T06:46:55.318Z,101917.84
2022-10-18T06:49:23.335Z,101920.50
2022-10-18T06:51:51.355Z,101928.13
2022-10-18T06:54:19.472Z,101934.72
2022-10-18T06:56:47.638Z,101922.00
2022-10-18T06:59:16.093Z,101925.31
2022-10-18T07:01:45.655Z,101930.41
2022-10-18T07:04:13.638Z,101923.78
2022-10-18T07:06:41.742Z,101920.25
2022-10-18T07:09:09.601Z,101913.94
2022-10-18T07:11:43.011Z,101932.16
2022-10-18T07:14:14.038Z,101927.66
2022-10-18T07:17:00.242Z,101924.03
2022-10-18T07:19:28.411Z,101920.00
2022-10-18T07:21:56.211Z,101918.50
2022-10-18T07:24:26.490Z,101927.78
2022-10-18T07:26:54.782Z,101929.56
2022-10-18T07:29:22.661Z,101923.25
2022-10-18T07:31:53.561Z,101924.16
2022-10-18T07:34:23.208Z,101925.94
2022-10-18T07:36:50.979Z,101928.75
2022-10-18T07:39:18.803Z,101936.66
2022-10-18T07:41:46.565Z,101933.31
2022-10-18T07:44:15.386Z,101922.81
2022-10-18T07:46:43.191Z,101922.19
2022-10-18T07:49:13.809Z,101928.91
2022-10-18T07:51:49.633Z,101926.38
2022-10-18T07:54:19.867Z,101922.91
2022-10-18T07:56:47.892Z,101924.34
2022-10-18T07:59:17.363Z,101931.84
2022-10-18T08:01:54.393Z,101930.34
2022-10-18T08:04:24.782Z,101939.25
2022-10-18T08:06:54.107Z,101938.19
2022-10-18T08:09:22.396Z,101941.06
2022-10-18T08:11:50.291Z,101939.00
2022-10-18T08:14:25.447Z,101929.69
2022-10-18T08:16:55.464Z,101924.44
2022-10-18T08:19:25.869Z,101915.94
2022-10-18T08:21:55.084Z,101919.25
2022-10-18T08:24:34.648Z,101890.72
2022-10-18T08:27:04.354Z,101919.59
2022-10-18T08:29:32.335Z,101921.00
2022-10-18T08:32:04.392Z,101923.69
2022-10-18T08:34:35.378Z,101926.09
2022-10-18T08:37:04.762Z,101922.72
2022-10-18T08:39:32.612Z,101915.16
2022-10-18T08:42:42.724Z,101924.44
2022-10-18T08:45:37.297Z,101937.34
2022-10-18T08:48:02.418Z,101947.25
2022-10-18T08:50:36.765Z,101933.22
2022-10-18T08:53:25.123Z,101938.81
2022-10-18T08:56:00.422Z,101948.34
2022-10-18T08:58:33.416Z,101944.16
2022-10-18T09:01:20.677Z,101952.06
2022-10-18T09:04:27.571Z,101960.94
2022-10-18T09:07:17.279Z,101950.63
2022-10-18T09:09:57.352Z,101959.28
2022-10-18T09:12:42.673Z,101968.44
2022-10-18T09:15:21.371Z,101976.06
2022-10-18T09:18:15.117Z,101979.78
2022-10-18T09:20:54.028Z,101977.25
2022-10-18T09:23:51.638Z,101976.63
2022-10-18T09:26:25.872Z,101972.34
2022-10-18T09:29:11.776Z,101963.88
2022-10-18T09:31:56.100Z,101973.59
2022-10-18T09:34:31.840Z,101975.56
2022-10-18T09:37:00.758Z,101978.00
2022-10-18T09:39:33.200Z,101983.94
2022-10-18T09:42:18.443Z,101984.03
2022-10-18T09:44:52.227Z,101969.03
2022-10-18T09:47:24.825Z,101980.50
2022-10-18T09:49:58.999Z,101979.00
2022-10-18T09:52:32.161Z,101980.63
2022-10-18T09:55:04.462Z,101987.47
2022-10-18T09:57:39.538Z,101986.22
2022-10-18T10:00:16.419Z,101982.44
2022-10-18T10:02:44.497Z,101979.75
2022-10-18T10:05:14.526Z,101987.53
2022-10-18T10:07:44.723Z,101984.84
2022-10-18T10:10:21.329Z,101981.53
2022-10-18T10:13:07.730Z,101986.81
2022-10-18T10:15:38.175Z,101997.03
2022-10-18T10:18:21.879Z,101987.88
2022-10-18T10:20:58.286Z,101995.53
2022-10-18T10:23:30.579Z,101989.28
2022-10-18T10:26:08.156Z,101990.25
2022-10-18T10:28:43.622Z,101982.94
2022-10-18T10:31:28.497Z,101998.91
2022-10-18T10:34:01.474Z,101996.09
2022-10-18T10:36:29.844Z,101989.56
2022-10-18T10:39:06.627Z,102010.50
2022-10-18T10:41:35.405Z,101998.44
2022-10-18T10:44:14.943Z,101986.50
2022-10-18T10:46:43.628Z,101994.56
2022-10-18T10:49:40.066Z,101994.66
2022-10-18T10:52:25.927Z,101990.28
2022-10-18T10:55:05.812Z,101967.41
2022-10-18T10:57:49.729Z,101990.84
2022-10-18T11:00:39.425Z,102000.31
2022-10-18T11:03:27.863Z,101995.44
2022-10-18T11:05:58.094Z,101994.88
2022-10-18T11:08:29.518Z,101979.38
2022-10-18T11:11:16.950Z,101975.94
2022-10-18T11:13:56.935Z,101962.91
2022-10-18T11:16:40.531Z,101983.81
2022-10-18T11:19:26.372Z,101974.78
2022-10-18T11:21:58.248Z,101978.13
2022-10-18T11:24:29.139Z,101978.88
2022-10-18T11:27:11.338Z,101979.16
2022-10-18T11:30:09.475Z,101974.06
2022-10-18T11:32:45.361Z,101971.13
2022-10-18T11:35:28.709Z,101963.72
2022-10-18T11:38:07.542Z,101961.28
2022-10-18T11:40:53.681Z,101962.03
2022-10-18T11:43:30.311Z,101967.41
2022-10-18T11:46:14.735Z,101952.25
2022-10-18T11:48:58.787Z,101957.88
2022-10-18T11:51:55.909Z,101959.41
2022-10-18T11:54:43.675Z,101955.19
2022-10-18T11:57:22.305Z,101967.03
2022-10-18T12:00:03.455Z,101960.03
2022-10-18T12:03:11.182Z,101950.75
2022-10-18T12:05:55.339Z,101961.06
2022-10-18T12:08:29.240Z,101959.44
2022-10-18T12:11:07.072Z,101956.09
2022-10-18T12:13:42.394Z,101963.50
2022-10-18T12:16:11.984Z,101961.97
2022-10-18T12:18:54.822Z,101954.34
2022-10-18T12:21:29.425Z,101952.16
2022-10-18T12:24:04.035Z,101924.84
2022-10-18T12:26:37.052Z,101947.66
2022-10-18T12:29:19.281Z,101948.81
2022-10-18T12:31:51.217Z,101952.53
2022-10-18T12:34:43.949Z,101943.97
2022-10-18T12:37:54.987Z,101938.78
2022-10-18T12:40:26.557Z,101936.63
2022-10-18T12:42:54.754Z,101935.72
2022-10-18T12:45:30.253Z,101937.25
2022-10-18T12:48:02.076Z,101943.25
2022-10-18T12:50:36.198Z,101940.72
2022-10-18T12:53:20.251Z,101944.78
2022-10-18T12:55:51.521Z,101955.72
2022-10-18T12:58:26.424Z,101947.22
2022-10-18T13:01:01.111Z,101939.41
2022-10-18T13:04:02.226Z,101939.91
2022-10-18T13:07:07.923Z,101948.84
2022-10-18T13:09:42.071Z,101944.66
2022-10-18T13:12:31.544Z,101946.81
2022-10-18T13:15:24.687Z,101955.34
2022-10-18T13:18:02.525Z,101952.78
2022-10-18T13:20:39.915Z,101952.53
2022-10-18T13:23:24.345Z,101939.75
2022-10-18T13:25:57.919Z,101951.22
2022-10-18T13:28:31.917Z,101925.34
2022-10-18T13:31:03.950Z,101952.63
2022-10-18T13:33:38.843Z,101955.53
2022-10-18T13:36:25.979Z,101949.28
2022-10-18T13:39:07.251Z,101954.75
2022-10-18T13:42:08.833Z,101960.03
2022-10-18T13:44:40.002Z,101963.19
2022-10-18T13:47:13.676Z,101966.34
2022-10-18T13:50:04.011Z,101953.25
2022-10-18T13:52:50.231Z,101962.66
2022-10-18T13:55:49.813Z,101968.38
2022-10-18T13:58:27.581Z,101967.38
2022-10-18T14:01:14.266Z,101970.34
2022-10-18T14:04:27.277Z,101969.34
2022-10-18T14:07:02.350Z,101983.13
2022-10-18T14:09:44.184Z,101986.16
2022-10-18T14:12:27.672Z,101976.63
2022-10-18T14:15:00.846Z,101970.72
2022-10-18T14:17:42.786Z,101984.75
2022-10-18T14:20:40.100Z,101986.16
2022-10-18T14:23:19.987Z,101986.16
2022-10-18T14:25:48.981Z,101991.09
2022-10-18T14:28:36.310Z,102000.53
2022-10-18T14:31:15.108Z,102000.41
2022-10-18T14:33:47.110Z,101988.91
2022-10-18T14:36:17.325Z,101993.75
2022-10-18T14:38:51.834Z,102005.47
2022-10-18T14:41:24.809Z,101996.81
2022-10-18T14:43:56.049Z,101997.69
2022-10-18T14:46:28.980Z,101997.81
2022-10-18T14:49:15.965Z,101998.44
2022-10-18T14:51:46.492Z,101994.25
2022-10-18T14:54:19.543Z,101997.41
2022-10-18T14:56:56.352Z,102002.88
2022-10-18T14:59:30.591Z,102004.75
2022-10-18T15:02:02.038Z,102004.22
2022-10-18T15:04:36.557Z,101999.47
2022-10-18T15:07:07.608Z,102000.88
2022-10-18T15:09:36.986Z,102008.88
2022-10-18T15:12:09.705Z,102002.34
2022-10-18T15:14:40.920Z,102000.88
2022-10-18T15:17:15.868Z,102003.00
2022-10-18T15:20:01.791Z,102004.88
2022-10-18T15:22:34.018Z,102003.16
2022-10-18T15:25:23.750Z,101999.91
2022-10-18T15:27:57.123Z,101998.50
2022-10-18T15:30:28.125Z,101992.84
2022-10-18T15:33:00.106Z,101992.03
2022-10-18T15:35:33.491Z,101995.66
2022-10-18T15:38:15.994Z,101999.13
2022-10-18T15:40:45.112Z,101999.06
2022-10-18T15:43:35.810Z,102003.28
2022-10-18T15:46:07.501Z,101994.38
2022-10-18T15:48:38.229Z,102001.31
2022-10-18T15:51:09.858Z,102005.50
2022-10-18T15:53:46.195Z,102011.53
2022-10-18T15:56:32.190Z,101986.66
2022-10-18T15:59:05.272Z,102004.72
2022-10-18T16:01:46.140Z,102000.41
2022-10-18T16:04:19.481Z,102012.53
2022-10-18T16:07:11.028Z,102015.25
2022-10-18T16:09:39.212Z,102018.81
2022-10-18T16:12:07.020Z,101983.47
2022-10-18T16:14:35.244Z,102017.66
2022-10-18T16:17:09.182Z,102019.16
2022-10-18T16:19:36.951Z,102024.06
2022-10-18T16:24:44.755Z,102033.91
2022-10-18T16:27:12.851Z,102031.50
2022-10-18T16:29:41.542Z,102033.47
2022-10-18T16:32:09.548Z,102020.31
2022-10-18T16:34:37.436Z,102046.88
2022-10-18T16:37:08.598Z,102033.59
2022-10-18T16:39:36.687Z,102038.06
2022-10-18T16:42:04.709Z,102045.94
2022-10-18T16:44:32.751Z,102041.16
2022-10-18T16:47:08.023Z,102037.13
2022-10-18T16:49:36.187Z,102048.59
2022-10-18T16:52:04.070Z,102055.16
2022-10-18T16:54:36.479Z,102054.53
2022-10-18T16:57:20.735Z,102053.59
2022-10-18T16:59:48.609Z,102061.63
2022-10-18T17:02:19.504Z,102060.44
2022-10-18T17:04:47.355Z,102071.13
2022-10-18T17:07:23.961Z,102071.75
2022-10-18T17:09:55.760Z,102075.44
2022-10-18T17:12:26.452Z,102072.44
2022-10-18T17:14:54.873Z,102076.69
2022-10-18T17:17:22.934Z,102077.69
2022-10-18T17:19:50.967Z,102088.25
2022-10-18T17:22:18.766Z,102089.72
2022-10-18T17:24:46.685Z,102088.66
2022-10-18T17:27:16.014Z,102095.19
2022-10-18T17:29:44.126Z,102099.06
2022-10-18T17:32:12.865Z,102096.78
2022-10-18T17:34:47.907Z,102095.28
2022-10-18T17:37:15.977Z,102097.47
2022-10-18T17:39:43.843Z,102104.41
2022-10-18T17:42:11.950Z,102109.75
2022-10-18T17:44:43.194Z,102114.66
2022-10-18T17:47:13.981Z,102090.81
2022-10-18T17:49:43.783Z,102115.66
2022-10-18T17:52:11.763Z,102124.72
2022-10-18T17:54:39.768Z,102120.94
2022-10-18T17:57:08.053Z,102127.50
2022-10-18T17:59:35.866Z,102133.13
2022-10-18T18:02:04.984Z,102099.94
2022-10-18T18:04:33.005Z,102132.06
2022-10-18T18:07:02.560Z,102127.56
2022-10-18T18:09:30.682Z,102117.53
2022-10-18T18:12:08.968Z,102116.47
2022-10-18T18:14:37.789Z,102117.22
2022-10-18T18:17:28.656Z,102129.53
2022-10-18T18:20:06.873Z,102125.63
2022-10-18T18:22:40.445Z,102135.22
2022-10-18T18:25:11.108Z,102129.88
2022-10-18T18:27:42.653Z,102134.75
2022-10-18T18:30:15.283Z,102130.97
2022-10-18T18:32:44.698Z,102130.50
2022-10-18T18:35:12.792Z,102132.28
2022-10-18T18:37:40.772Z,102126.91
2022-10-18T18:40:09.763Z,102133.91
2022-10-18T18:42:40.054Z,102134.09
2022-10-18T18:45:11.144Z,102133.91
2022-10-18T18:47:39.832Z,102138.97
2022-10-18T18:50:14.380Z,102137.19
2022-10-18T18:52:43.153Z,102135.22
2022-10-18T18:55:12.773Z,102130.56
2022-10-18T18:57:46.437Z,102128.28
2022-10-18T19:00:15.801Z,102128.88
2022-10-18T19:02:44.489Z,102129.06
2022-10-18T19:07:54.862Z,102127.16
2022-10-18T19:10:22.774Z,102122.50
2022-10-18T19:12:50.803Z,102119.63
2022-10-18T19:15:19.758Z,102126.16
2022-10-18T19:17:47.645Z,102117.50
2022-10-18T19:20:17.654Z,102128.66
2022-10-18T19:22:47.337Z,102129.25
2022-10-18T19:25:16.975Z,102130.56
2022-10-18T19:27:56.593Z,102134.19
2022-10-18T19:30:24.642Z,102141.84
2022-10-18T19:33:07.698Z,102145.31
2022-10-18T19:35:52.042Z,102131.00
2022-10-18T19:38:24.196Z,102147.34
2022-10-18T19:40:54.308Z,102152.16
2022-10-18T19:43:22.232Z,102155.19
2022-10-18T19:45:51.418Z,102150.41
2022-10-18T19:48:25.543Z,102151.41
2022-10-18T19:51:09.423Z,102151.78
2022-10-18T19:53:39.452Z,102164.69
2022-10-18T19:56:10.457Z,102167.34
2022-10-18T19:58:59.991Z,102173.06
2022-10-18T20:01:30.229Z,102169.22
2022-10-18T20:03:58.861Z,102168.47
2022-10-18T20:09:14.781Z,102160.44
2022-10-18T20:11:54.980Z,102163.53
2022-10-18T20:14:22.995Z,102161.91
2022-10-18T20:16:50.895Z,102166.63
2022-10-18T20:19:21.973Z,102168.69
2022-10-18T20:21:58.826Z,102169.91
2022-10-18T20:24:30.312Z,102166.63
2022-10-18T20:27:00.687Z,102174.88
2022-10-18T20:29:30.058Z,102172.03
2022-10-18T20:31:57.875Z,102187.44
2022-10-18T20:34:28.343Z,102182.22
2022-10-18T20:36:57.008Z,102174.97
2022-10-18T20:39:28.368Z,102179.81
2022-10-18T20:42:05.080Z,102180.88
2022-10-18T20:44:37.831Z,102168.94
2022-10-18T20:47:06.007Z,102152.47
2022-10-18T20:49:33.891Z,102132.38
2022-10-18T20:52:04.850Z,102165.28
2022-10-18T20:54:32.575Z,102161.50
2022-10-18T20:57:04.001Z,102171.19
2022-10-18T20:59:33.909Z,102176.25
2022-10-18T21:02:01.777Z,102179.84
2022-10-18T21:04:32.605Z,102172.09
2022-10-18T21:07:01.077Z,102166.13
2022-10-18T21:09:35.027Z,102162.22
2022-10-18T21:12:06.852Z,102161.91
2022-10-18T21:14:34.737Z,102158.16
2022-10-18T21:17:05.384Z,102163.63
2022-10-18T21:19:33.491Z,102163.84
2022-10-18T21:22:04.465Z,102169.47
2022-10-18T21:24:46.808Z,102170.03
2022-10-18T21:27:16.229Z,102175.66
2022-10-18T21:29:44.035Z,102161.72
2022-10-18T21:32:11.935Z,102166.63
2022-10-18T21:34:48.826Z,102155.53
2022-10-18T21:37:16.754Z,102166.16
2022-10-18T21:39:44.528Z,102172.59
2022-10-18T21:42:13.548Z,102174.38
2022-10-18T21:44:42.792Z,102164.09
2022-10-18T21:47:12.753Z,102174.06
2022-10-18T21:49:40.634Z,102180.00
2022-10-18T21:52:08.374Z,102171.53
2022-10-18T21:54:36.152Z,102168.44
2022-10-18T21:57:06.788Z,102182.69
2022-10-18T21:59:54.999Z,102176.97
2022-10-18T22:02:22.756Z,102182.94
2022-10-18T22:04:53.666Z,102183.25
2022-10-18T22:07:21.516Z,102182.53
2022-10-18T22:09:49.318Z,102186.84
2022-10-18T22:12:24.655Z,102191.00
2022-10-18T22:15:04.824Z,102200.94
2022-10-18T22:17:32.879Z,102182.03
2022-10-18T22:20:01.124Z,102189.44
2022-10-18T22:22:36.071Z,102186.56
2022-10-18T22:25:03.991Z,102172.16
2022-10-18T22:27:32.670Z,102178.66
2022-10-18T22:30:01.979Z,102170.16
2022-10-18T22:32:29.731Z,102174.16
2022-10-18T22:35:00.649Z,102181.25
2022-10-18T22:37:28.474Z,102181.63
2022-10-18T22:39:59.558Z,102178.97
2022-10-18T22:42:27.390Z,102177.53
2022-10-18T22:44:57.615Z,102172.84
2022-10-18T22:47:26.734Z,102175.81
2022-10-18T22:49:54.601Z,102171.38
2022-10-18T22:52:22.362Z,102164.72
2022-10-18T22:54:53.154Z,102166.56
2022-10-18T22:57:28.171Z,102160.13
2022-10-18T22:59:56.501Z,102161.22
2022-10-18T23:02:24.295Z,102150.63
2022-10-18T23:04:53.415Z,102152.78
2022-10-18T23:07:21.225Z,102146.50
2022-10-18T23:09:48.973Z,102108.09
2022-10-18T23:12:16.756Z,102153.03
2022-10-18T23:14:51.840Z,102143.69
2022-10-18T23:17:19.674Z,102151.97
2022-10-18T23:19:47.983Z,102153.25
2022-10-18T23:22:21.170Z,102141.38
2022-10-18T23:24:48.964Z,102144.44
2022-10-18T23:27:16.934Z,102145.00
2022-10-18T23:29:47.751Z,102144.09
2022-10-18T23:32:15.460Z,102141.94
2022-10-18T23:34:49.329Z,102144.06
2022-10-18T23:37:20.801Z,102141.16
2022-10-18T23:39:48.616Z,102151.59
2022-10-18T23:42:16.578Z,102140.22
2022-10-18T23:44:47.986Z,102147.06
2022-10-18T23:47:18.917Z,102153.00
2022-10-18T23:49:46.781Z,102153.91
2022-10-18T23:52:24.747Z,102151.53
2022-10-18T23:54:52.523Z,102146.50
2022-10-18T23:57:20.351Z,102153.69
2022-10-18T23:59:54.377Z,102146.81
